sensor_id;sensor_type;location;lat;lon;timestamp;P1;durP1;ratioP1;P2;durP2;ratioP2
40248;SDS011;25969;49.970;11.062;2023-07-30T04:09:36;3.53;;;2.40;;
40248;SDS011;25969;49.970;11.062;2023-07-30T04:29:37;13.23;;;4.10;;
40248;SDS011;25969;49.970;11.062;2023-07-30T04:39:39;5.22;;;3.00;;
40248;SDS011;25969;49.970;11.062;2023-07-30T04:49:40;4.10;;;2.88;;
40248;SDS011;25969;49.970;11.062;2023-07-30T05:09:42;3.28;;;2.90;;
40248;SDS011;25969;49.970;11.062;2023-07-30T05:29:43;5.67;;;3.50;;
40248;SDS011;25969;49.970;11.062;2023-07-30T05:49:45;4.23;;;3.17;;
40248;SDS011;25969;49.970;11.062;2023-07-30T05:59:45;4.97;;;2.83;;
40248;SDS011;25969;49.970;11.062;2023-07-30T06:09:47;3.88;;;3.13;;
40248;SDS011;25969;49.970;11.062;2023-07-30T06:19:47;4.38;;;2.80;;
40248;SDS011;25969;49.970;11.062;2023-07-30T06:29:48;4.28;;;3.55;;
40248;SDS011;25969;49.970;11.062;2023-07-30T06:39:49;4.40;;;3.40;;
40248;SDS011;25969;49.970;11.062;2023-07-30T06:49:50;3.65;;;2.80;;
40248;SDS011;25969;49.970;11.062;2023-07-30T06:59:51;5.47;;;3.25;;
40248;SDS011;25969;49.970;11.062;2023-07-30T07:09:52;3.85;;;2.33;;
40248;SDS011;25969;49.970;11.062;2023-07-30T07:19:53;2.40;;;2.05;;
40248;SDS011;25969;49.970;11.062;2023-07-30T07:29:53;1.98;;;1.77;;
40248;SDS011;25969;49.970;11.062;2023-07-30T07:39:54;4.20;;;1.90;;
40248;SDS011;25969;49.970;11.062;2023-07-30T07:49:55;3.90;;;2.13;;
40248;SDS011;25969;49.970;11.062;2023-07-30T07:59:56;5.00;;;2.60;;
40248;SDS011;25969;49.970;11.062;2023-07-30T08:09:57;2.22;;;1.70;;
40248;SDS011;25969;49.970;11.062;2023-07-30T08:19:57;3.03;;;1.50;;
40248;SDS011;25969;49.970;11.062;2023-07-30T08:29:58;3.00;;;1.30;;
40248;SDS011;25969;49.970;11.062;2023-07-30T08:39:59;1.70;;;1.10;;
40248;SDS011;25969;49.970;11.062;2023-07-30T08:50:00;1.63;;;1.02;;
40248;SDS011;25969;49.970;11.062;2023-07-30T09:00:05;1.77;;;1.20;;
40248;SDS011;25969;49.970;11.062;2023-07-30T09:10:11;1.50;;;1.30;;
40248;SDS011;25969;49.970;11.062;2023-07-30T09:20:12;3.08;;;1.10;;
40248;SDS011;25969;49.970;11.062;2023-07-30T09:30:13;3.05;;;1.40;;
40248;SDS011;25969;49.970;11.062;2023-07-30T09:40:14;3.22;;;1.98;;
40248;SDS011;25969;49.970;11.062;2023-07-30T09:50:16;4.47;;;2.92;;
40248;SDS011;25969;49.970;11.062;2023-07-30T10:00:17;1.23;;;0.90;;
40248;SDS011;25969;49.970;11.062;2023-07-30T10:10:18;1.98;;;1.00;;
40248;SDS011;25969;49.970;11.062;2023-07-30T10:30:29;1.92;;;1.00;;
40248;SDS011;25969;49.970;11.062;2023-07-30T10:40:32;2.38;;;1.52;;
40248;SDS011;25969;49.970;11.062;2023-07-30T10:50:37;3.58;;;0.82;;
40248;SDS011;25969;49.970;11.062;2023-07-30T11:00:38;2.20;;;1.00;;
40248;SDS011;25969;49.970;11.062;2023-07-30T11:10:44;4.15;;;0.60;;
40248;SDS011;25969;49.970;11.062;2023-07-30T11:20:47;3.20;;;0.80;;
40248;SDS011;25969;49.970;11.062;2023-07-30T11:30:50;0.73;;;0.68;;
40248;SDS011;25969;49.970;11.062;2023-07-30T11:40:52;0.90;;;0.80;;
40248;SDS011;25969;49.970;11.062;2023-07-30T11:50:53;0.90;;;0.60;;
40248;SDS011;25969;49.970;11.062;2023-07-30T12:00:54;1.20;;;0.80;;
40248;SDS011;25969;49.970;11.062;2023-07-30T12:10:55;3.75;;;1.80;;
40248;SDS011;25969;49.970;11.062;2023-07-30T12:20:57;1.98;;;1.50;;
40248;SDS011;25969;49.970;11.062;2023-07-30T12:30:58;1.13;;;0.95;;
40248;SDS011;25969;49.970;11.062;2023-07-30T12:40:59;1.08;;;0.90;;
40248;SDS011;25969;49.970;11.062;2023-07-30T12:51:00;3.20;;;1.02;;
40248;SDS011;25969;49.970;11.062;2023-07-30T13:01:02;4.53;;;1.20;;
40248;SDS011;25969;49.970;11.062;2023-07-30T13:11:03;2.08;;;1.10;;
40248;SDS011;25969;49.970;11.062;2023-07-30T13:21:04;2.08;;;1.05;;
40248;SDS011;25969;49.970;11.062;2023-07-30T13:31:05;1.63;;;0.90;;
40248;SDS011;25969;49.970;11.062;2023-07-30T13:41:06;1.65;;;0.80;;
40248;SDS011;25969;49.970;11.062;2023-07-30T13:51:07;1.98;;;0.63;;
40248;SDS011;25969;49.970;11.062;2023-07-30T14:01:07;1.55;;;0.60;;
40248;SDS011;25969;49.970;11.062;2023-07-30T14:11:09;2.10;;;0.75;;
40248;SDS011;25969;49.970;11.062;2023-07-30T14:21:10;0.85;;;0.43;;
40248;SDS011;25969;49.970;11.062;2023-07-30T14:31:11;3.20;;;0.70;;
40248;SDS011;25969;49.970;11.062;2023-07-30T14:41:15;1.90;;;0.63;;
40248;SDS011;25969;49.970;11.062;2023-07-30T14:51:16;0.85;;;0.68;;
40248;SDS011;25969;49.970;11.062;2023-07-30T15:01:17;3.63;;;0.60;;
40248;SDS011;25969;49.970;11.062;2023-07-30T15:11:17;9.80;;;0.93;;
40248;SDS011;25969;49.970;11.062;2023-07-30T15:21:18;2.45;;;0.77;;
40248;SDS011;25969;49.970;11.062;2023-07-30T15:31:19;2.63;;;0.77;;
40248;SDS011;25969;49.970;11.062;2023-07-30T15:41:20;6.88;;;1.20;;
40248;SDS011;25969;49.970;11.062;2023-07-30T15:51:21;3.60;;;0.75;;
40248;SDS011;25969;49.970;11.062;2023-07-30T16:01:22;2.63;;;0.90;;
40248;SDS011;25969;49.970;11.062;2023-07-30T16:11:22;3.15;;;0.80;;
40248;SDS011;25969;49.970;11.062;2023-07-30T16:21:23;4.20;;;0.80;;
40248;SDS011;25969;49.970;11.062;2023-07-30T16:31:24;1.92;;;0.73;;
40248;SDS011;25969;49.970;11.062;2023-07-30T16:41:25;4.28;;;0.88;;
40248;SDS011;25969;49.970;11.062;2023-07-30T16:51:26;1.05;;;0.60;;
40248;SDS011;25969;49.970;11.062;2023-07-30T17:01:27;1.52;;;0.60;;
40248;SDS011;25969;49.970;11.062;2023-07-30T17:11:27;2.60;;;0.60;;
40248;SDS011;25969;49.970;11.062;2023-07-30T17:21:28;2.75;;;0.65;;
40248;SDS011;25969;49.970;11.062;2023-07-30T17:31:29;2.53;;;0.60;;
40248;SDS011;25969;49.970;11.062;2023-07-30T17:41:30;1.15;;;0.60;;
40248;SDS011;25969;49.970;11.062;2023-07-30T17:51:30;3.03;;;0.70;;
40248;SDS011;25969;49.970;11.062;2023-07-30T18:01:35;8.77;;;1.00;;
40248;SDS011;25969;49.970;11.062;2023-07-30T18:11:36;2.85;;;0.80;;
40248;SDS011;25969;49.970;11.062;2023-07-30T18:21:37;3.60;;;0.80;;
40248;SDS011;25969;49.970;11.062;2023-07-30T18:41:39;3.00;;;0.73;;
40248;SDS011;25969;49.970;11.062;2023-07-30T18:51:40;3.83;;;0.90;;
40248;SDS011;25969;49.970;11.062;2023-07-30T19:01:41;7.37;;;0.87;;
40248;SDS011;25969;49.970;11.062;2023-07-30T19:11:42;5.28;;;0.98;;
40248;SDS011;25969;49.970;11.062;2023-07-30T19:21:43;3.10;;;0.68;;
40248;SDS011;25969;49.970;11.062;2023-07-30T19:31:43;3.40;;;0.83;;
40248;SDS011;25969;49.970;11.062;2023-07-30T19:41:44;6.33;;;0.87;;
40248;SDS011;25969;49.970;11.062;2023-07-30T19:51:45;5.90;;;1.20;;
40248;SDS011;25969;49.970;11.062;2023-07-30T20:12:11;4.10;;;0.90;;
40248;SDS011;25969;49.970;11.062;2023-07-30T20:22:21;6.65;;;1.10;;
40248;SDS011;25969;49.970;11.062;2023-07-30T20:32:21;2.37;;;0.77;;
40248;SDS011;25969;49.970;11.062;2023-07-30T20:42:24;7.10;;;1.88;;
40248;SDS011;25969;49.970;11.062;2023-07-30T20:52:25;7.30;;;0.93;;
40248;SDS011;25969;49.970;11.062;2023-07-30T21:02:26;5.87;;;0.73;;
40248;SDS011;25969;49.970;11.062;2023-07-30T21:12:26;6.47;;;1.20;;
40248;SDS011;25969;49.970;11.062;2023-07-30T21:22:27;3.67;;;0.90;;
40248;SDS011;25969;49.970;11.062;2023-07-30T21:32:28;4.00;;;1.00;;
40248;SDS011;25969;49.970;11.062;2023-07-30T21:42:28;3.67;;;0.90;;
40248;SDS011;25969;49.970;11.062;2023-07-30T21:52:31;5.80;;;1.00;;
